createdAt,value
2018-08-09T00:00:19.046Z,0.00
2018-08-09T00:01:19.014Z,0.00
2018-08-09T00:02:18.985Z,0.00
2018-08-09T00:03:18.957Z,0.00
2018-08-09T00:04:18.922Z,0.00
2018-08-09T00:05:18.889Z,0.00
2018-08-09T00:06:18.853Z,0.00
2018-08-09T00:07:18.820Z,0.00
2018-08-09T00:08:18.814Z,0.00
2018-08-09T00:09:18.760Z,0.00
2018-08-09T00:10:18.723Z,0.00
2018-08-09T00:11:18.693Z,0.00
2018-08-09T00:12:18.660Z,0.00
2018-08-09T00:13:18.632Z,0.00
2018-08-09T00:14:18.601Z,0.00
2018-08-09T00:15:18.569Z,0.00
2018-08-09T00:16:18.538Z,0.00
2018-08-09T00:17:18.504Z,0.00
2018-08-09T00:18:18.468Z,0.00
2018-08-09T00:19:18.454Z,0.00
2018-08-09T00:20:18.404Z,0.00
2018-08-09T00:21:18.373Z,0.00
2018-08-09T00:22:18.343Z,0.00
2018-08-09T00:23:18.315Z,0.00
2018-08-09T00:24:18.275Z,0.00
2018-08-09T00:25:18.253Z,0.00
2018-08-09T00:26:18.217Z,0.00
2018-08-09T00:27:18.186Z,0.00
2018-08-09T00:28:18.153Z,0.00
2018-08-09T00:29:18.123Z,0.00
2018-08-09T00:30:18.086Z,0.00
2018-08-09T00:31:18.055Z,0.00
2018-08-09T00:32:18.017Z,0.00
2018-08-09T00:33:17.988Z,0.00
2018-08-09T00:34:17.957Z,0.00
2018-08-09T00:35:17.927Z,0.00
2018-08-09T00:36:17.896Z,0.00
2018-08-09T00:37:17.860Z,0.00
2018-08-09T00:38:17.826Z,0.00
2018-08-09T00:39:17.846Z,0.00
2018-08-09T00:40:17.767Z,0.00
2018-08-09T00:41:17.731Z,0.00
2018-08-09T00:42:17.703Z,0.00
2018-08-09T00:43:17.663Z,0.00
2018-08-09T00:44:17.630Z,0.00
2018-08-09T00:45:17.600Z,0.00
2018-08-09T00:46:17.572Z,0.00
2018-08-09T00:47:17.540Z,0.00
2018-08-09T00:48:17.508Z,0.00
2018-08-09T00:49:17.477Z,0.00
2018-08-09T00:50:17.439Z,0.00
2018-08-09T00:51:17.405Z,0.00
2018-08-09T00:52:17.375Z,0.00
2018-08-09T00:53:17.345Z,0.00
2018-08-09T00:54:17.313Z,0.00
2018-08-09T00:55:17.289Z,0.00
2018-08-09T00:56:17.244Z,0.00
2018-08-09T00:57:17.215Z,0.00
2018-08-09T00:58:17.183Z,0.00
2018-08-09T00:59:17.159Z,0.00
2018-08-09T01:00:17.120Z,0.00
2018-08-09T01:01:17.086Z,0.00
2018-08-09T01:02:17.059Z,0.00
2018-08-09T01:03:17.017Z,0.00
2018-08-09T01:04:16.990Z,0.00
2018-08-09T01:05:16.959Z,0.00
2018-08-09T01:06:16.920Z,0.00
2018-08-09T01:07:16.891Z,0.00
2018-08-09T01:08:16.859Z,0.00
2018-08-09T01:09:16.823Z,0.00
2018-08-09T01:10:16.797Z,0.00
2018-08-09T01:11:16.762Z,0.00
2018-08-09T01:12:16.729Z,0.00
2018-08-09T01:13:16.696Z,0.00
2018-08-09T01:14:16.667Z,0.00
2018-08-09T01:15:16.667Z,0.00
2018-08-09T01:16:16.621Z,0.00
2018-08-09T01:17:16.573Z,0.00
2018-08-09T01:18:16.534Z,0.00
2018-08-09T01:19:16.509Z,0.00
2018-08-09T01:20:16.471Z,0.00
2018-08-09T01:21:16.438Z,0.00
2018-08-09T01:22:16.409Z,0.00
2018-08-09T01:23:16.389Z,0.00
2018-08-09T01:24:16.345Z,0.00
2018-08-09T01:25:16.312Z,0.00
2018-08-09T01:26:16.273Z,0.00
2018-08-09T01:27:16.250Z,0.00
2018-08-09T01:28:16.219Z,0.00
2018-08-09T01:29:16.184Z,0.00
2018-08-09T01:30:16.143Z,0.00
2018-08-09T01:31:16.120Z,0.00
2018-08-09T01:32:16.083Z,0.00
2018-08-09T01:33:16.049Z,0.00
2018-08-09T01:34:16.029Z,0.00
2018-08-09T01:35:15.985Z,0.00
2018-08-09T01:36:15.953Z,0.00
2018-08-09T01:37:15.922Z,0.00
2018-08-09T01:38:15.885Z,0.00
2018-08-09T01:39:15.851Z,0.00
2018-08-09T01:40:15.821Z,0.00
2018-08-09T01:41:15.786Z,0.00
2018-08-09T01:42:15.759Z,0.00
2018-08-09T01:43:15.724Z,0.00
2018-08-09T01:44:15.691Z,0.00
2018-08-09T01:45:15.656Z,0.00
2018-08-09T01:46:15.629Z,0.00
2018-08-09T01:47:15.597Z,0.00
2018-08-09T01:48:15.563Z,0.00
2018-08-09T01:49:15.531Z,0.00
2018-08-09T01:50:15.494Z,0.00
2018-08-09T01:51:15.468Z,0.00
2018-08-09T01:52:15.429Z,0.00
2018-08-09T01:53:15.395Z,0.00
2018-08-09T01:54:15.376Z,0.00
2018-08-09T01:55:15.334Z,0.00
2018-08-09T01:56:15.304Z,0.00
2018-08-09T01:57:15.273Z,0.00
2018-08-09T01:58:15.232Z,0.00
2018-08-09T01:59:15.206Z,0.00
2018-08-09T02:00:15.172Z,0.00
2018-08-09T02:01:15.141Z,0.00
2018-08-09T02:02:15.105Z,0.00
2018-08-09T02:03:15.071Z,0.00
2018-08-09T02:04:15.041Z,0.00
2018-08-09T02:05:15.023Z,0.00
2018-08-09T02:06:14.995Z,0.00
2018-08-09T02:07:14.946Z,0.00
2018-08-09T02:08:14.911Z,0.00
2018-08-09T02:09:14.882Z,0.00
2018-08-09T02:10:14.842Z,0.00
2018-08-09T02:11:14.811Z,0.00
2018-08-09T02:12:14.780Z,0.00
2018-08-09T02:13:14.744Z,0.00
2018-08-09T02:14:14.717Z,0.00
2018-08-09T02:15:14.686Z,0.00
2018-08-09T02:16:14.649Z,0.00
2018-08-09T02:17:14.615Z,0.00
2018-08-09T02:18:14.594Z,0.00
2018-08-09T02:19:14.552Z,0.00
2018-08-09T02:20:14.521Z,0.00
2018-08-09T02:21:14.490Z,0.00
2018-08-09T02:22:14.452Z,0.00
2018-08-09T02:23:14.422Z,0.00
2018-08-09T02:24:14.392Z,0.00
2018-08-09T02:25:14.363Z,0.00
2018-08-09T02:26:14.325Z,0.00
2018-08-09T02:27:14.292Z,0.00
2018-08-09T02:28:14.260Z,0.00
2018-08-09T02:29:14.234Z,0.00
2018-08-09T02:30:14.196Z,0.00
2018-08-09T02:31:14.160Z,0.00
2018-08-09T02:32:14.129Z,0.00
2018-08-09T02:33:14.099Z,0.00
2018-08-09T02:34:14.060Z,0.00
2018-08-09T02:35:14.034Z,0.00
2018-08-09T02:36:13.998Z,0.00
2018-08-09T02:37:13.961Z,0.00
2018-08-09T02:38:13.935Z,0.00
2018-08-09T02:39:13.901Z,0.00
2018-08-09T02:40:13.871Z,0.00
2018-08-09T02:41:13.839Z,0.00
2018-08-09T02:42:13.800Z,0.00
2018-08-09T02:43:13.768Z,0.00
2018-08-09T02:44:13.746Z,0.00
2018-08-09T02:45:13.702Z,0.00
2018-08-09T02:46:13.675Z,0.00
2018-08-09T02:47:13.639Z,0.00
2018-08-09T02:48:13.608Z,0.00
2018-08-09T02:49:13.576Z,0.00
2018-08-09T02:50:13.545Z,0.00
2018-08-09T02:51:13.508Z,0.00
2018-08-09T02:52:13.478Z,0.00
2018-08-09T02:53:13.446Z,0.00
2018-08-09T02:54:13.414Z,0.00
2018-08-09T02:55:13.374Z,0.00
2018-08-09T02:56:13.345Z,0.00
2018-08-09T02:57:13.337Z,0.00
2018-08-09T02:58:13.283Z,0.00
2018-08-09T02:59:13.248Z,0.00
2018-08-09T03:00:13.215Z,0.00
2018-08-09T03:01:13.187Z,0.00
2018-08-09T03:02:13.146Z,0.00
2018-08-09T03:03:13.114Z,0.00
2018-08-09T03:04:13.086Z,0.00
2018-08-09T03:05:13.056Z,0.00
2018-08-09T03:06:13.019Z,0.00
2018-08-09T03:07:12.983Z,0.00
2018-08-09T03:08:12.950Z,0.00
2018-08-09T03:09:12.916Z,0.00
2018-08-09T03:10:12.889Z,0.00
2018-08-09T03:11:12.854Z,0.00
2018-08-09T03:12:12.822Z,0.00
2018-08-09T03:13:12.792Z,0.00
2018-08-09T03:14:12.755Z,0.00
2018-08-09T03:15:12.735Z,0.00
2018-08-09T03:16:12.690Z,0.00
2018-08-09T03:17:12.671Z,0.00
2018-08-09T03:18:12.627Z,0.00
2018-08-09T03:19:12.593Z,0.00
2018-08-09T03:20:12.558Z,0.00
2018-08-09T03:21:12.534Z,0.00
2018-08-09T03:22:12.494Z,0.00
2018-08-09T03:23:12.463Z,0.00
2018-08-09T03:24:12.472Z,0.00
2018-08-09T03:25:12.400Z,0.00
2018-08-09T03:26:12.360Z,0.00
2018-08-09T03:27:12.332Z,0.00
2018-08-09T03:28:12.296Z,0.00
2018-08-09T03:29:12.264Z,0.00
2018-08-09T03:30:12.236Z,0.00
2018-08-09T03:31:12.208Z,0.00
2018-08-09T03:32:12.168Z,0.00
2018-08-09T03:33:12.139Z,0.00
2018-08-09T03:34:12.098Z,0.00
2018-08-09T03:35:12.068Z,0.00
2018-08-09T03:36:12.037Z,0.00
2018-08-09T03:37:12.007Z,0.00
2018-08-09T03:38:11.973Z,0.00
2018-08-09T03:39:11.937Z,0.00
2018-08-09T03:40:11.904Z,0.00
2018-08-09T03:41:11.872Z,0.00
2018-08-09T03:42:11.915Z,0.00
2018-08-09T03:43:11.809Z,0.00
2018-08-09T03:44:11.776Z,0.00
2018-08-09T03:45:11.750Z,0.00
2018-08-09T03:46:11.707Z,0.00
2018-08-09T03:47:11.686Z,0.00
2018-08-09T03:48:11.644Z,4.00
2018-08-09T03:49:11.610Z,4.00
2018-08-09T03:50:11.584Z,0.00
2018-08-09T03:51:11.548Z,4.00
2018-08-09T03:52:11.514Z,4.00
2018-08-09T03:53:11.481Z,4.00
2018-08-09T03:54:11.452Z,4.00
2018-08-09T04:07:04.029Z,20.00
2018-08-09T04:08:03.947Z,20.00
2018-08-09T04:09:03.916Z,20.00
2018-08-09T04:10:03.869Z,24.00
2018-08-09T04:11:03.838Z,24.00
2018-08-09T04:12:03.832Z,24.00
2018-08-09T04:13:03.763Z,28.00
2018-08-09T04:14:03.736Z,28.00
2018-08-09T04:15:03.704Z,32.00
2018-08-09T04:16:03.659Z,36.00
2018-08-09T04:17:03.624Z,40.00
2018-08-09T04:18:03.596Z,48.00
2018-08-09T04:19:03.561Z,52.00
2018-08-09T04:20:03.526Z,60.00
2018-08-09T04:21:03.495Z,64.00
2018-08-09T04:22:03.458Z,72.00
2018-08-09T04:23:03.425Z,72.00
2018-08-09T04:24:03.392Z,80.00
2018-08-09T04:25:03.358Z,84.00
2018-08-09T04:26:03.331Z,100.00
2018-08-09T04:27:03.294Z,112.00
2018-08-09T04:28:03.261Z,116.00
2018-08-09T04:29:03.230Z,124.00
2018-08-09T04:30:03.193Z,136.00
2018-08-09T04:31:03.159Z,144.00
2018-08-09T04:32:03.126Z,164.00
2018-08-09T04:33:03.097Z,180.00
2018-08-09T04:34:03.060Z,192.00
2018-08-09T04:35:03.028Z,200.00
2018-08-09T04:36:02.995Z,212.00
2018-08-09T04:37:02.963Z,220.00
2018-08-09T04:38:02.988Z,232.00
2018-08-09T04:39:02.902Z,232.00
2018-08-09T04:40:02.868Z,236.00
2018-08-09T04:41:02.836Z,252.00
2018-08-09T04:42:02.846Z,268.00
2018-08-09T04:43:02.778Z,284.00
2018-08-09T04:44:02.734Z,296.00
2018-08-09T04:45:02.702Z,304.00
2018-08-09T04:46:02.684Z,312.00
2018-08-09T04:47:02.644Z,320.00
2018-08-09T04:48:02.601Z,324.00
2018-08-09T04:49:02.571Z,336.00
2018-08-09T04:50:02.545Z,356.00
2018-08-09T04:51:02.510Z,372.00
2018-08-09T04:52:02.473Z,384.00
2018-08-09T04:53:02.446Z,404.00
2018-08-09T04:54:02.410Z,432.00
2018-08-09T04:55:02.376Z,468.00
2018-08-09T04:56:02.342Z,500.00
2018-08-09T04:57:02.311Z,536.00
2018-08-09T04:58:02.289Z,572.00
2018-08-09T04:59:02.247Z,600.00
2018-08-09T05:00:02.214Z,632.00
2018-08-09T05:01:02.184Z,680.00
2018-08-09T05:02:02.160Z,704.00
2018-08-09T05:03:02.114Z,712.00
2018-08-09T05:04:02.094Z,724.00
2018-08-09T05:05:02.054Z,716.00
2018-08-09T05:06:02.015Z,704.00
2018-08-09T05:07:01.984Z,708.00
2018-08-09T05:08:01.952Z,720.00
2018-08-09T05:09:01.920Z,736.00
2018-08-09T05:10:01.890Z,764.00
2018-08-09T05:11:01.857Z,788.00
2018-08-09T05:12:01.824Z,792.00
2018-08-09T05:13:01.796Z,736.00
2018-08-09T05:14:01.755Z,664.00
2018-08-09T05:15:01.725Z,608.00
2018-08-09T05:16:01.777Z,572.00
2018-08-09T05:17:01.658Z,532.00
2018-08-09T05:18:01.632Z,488.00
2018-08-09T05:19:01.599Z,436.00
2018-08-09T05:20:01.562Z,400.00
2018-08-09T05:21:01.531Z,376.00
2018-08-09T05:22:01.502Z,360.00
2018-08-09T05:23:01.479Z,356.00
2018-08-09T05:24:01.459Z,356.00
2018-08-09T05:25:01.418Z,376.00
2018-08-09T05:26:01.367Z,412.00
2018-08-09T05:27:01.338Z,460.00
2018-08-09T05:28:01.304Z,508.00
2018-08-09T05:29:01.269Z,540.00
2018-08-09T05:30:01.242Z,556.00
2018-08-09T05:31:01.209Z,568.00
2018-08-09T05:32:01.176Z,612.00
2018-08-09T05:33:01.145Z,676.00
2018-08-09T05:34:01.116Z,652.00
2018-08-09T05:35:01.077Z,648.00
2018-08-09T05:36:01.046Z,676.00
2018-08-09T05:37:01.015Z,684.00
2018-08-09T05:38:00.976Z,684.00
2018-08-09T05:39:00.955Z,696.00
2018-08-09T05:40:00.919Z,748.00
2018-08-09T05:41:00.882Z,804.00
2018-08-09T05:42:00.860Z,852.00
2018-08-09T05:43:00.820Z,844.00
2018-08-09T05:44:00.788Z,868.00
2018-08-09T05:45:00.764Z,888.00
2018-08-09T05:46:00.719Z,940.00
2018-08-09T05:47:00.690Z,1016.00
2018-08-09T05:48:00.658Z,1104.00
2018-08-09T05:49:00.622Z,1200.00
2018-08-09T05:50:00.598Z,1312.00
2018-08-09T05:51:00.563Z,1412.00
2018-08-09T05:52:00.527Z,1616.00
2018-08-09T05:53:00.506Z,1676.00
2018-08-09T05:54:00.466Z,1700.00
2018-08-09T05:55:00.433Z,1656.00
2018-08-09T05:56:00.402Z,1612.00
2018-08-09T05:57:00.371Z,1584.00
2018-08-09T05:58:00.343Z,1588.00
2018-08-09T05:59:00.304Z,1636.00
2018-08-09T06:00:00.270Z,1752.00
2018-08-09T06:01:00.235Z,1680.00
2018-08-09T06:02:00.215Z,1684.00
2018-08-09T06:03:00.176Z,2064.00
2018-08-09T06:04:00.143Z,1732.00
2018-08-09T06:05:00.113Z,2292.00
2018-08-09T06:06:00.074Z,1904.00
2018-08-09T06:07:00.078Z,1948.00
2018-08-09T06:08:00.017Z,2076.00
2018-08-09T06:08:59.985Z,2108.00
2018-08-09T06:09:59.949Z,2508.00
2018-08-09T06:10:59.916Z,2028.00
2018-08-09T06:11:59.883Z,2032.00
2018-08-09T06:12:59.849Z,2716.00
2018-08-09T06:13:59.823Z,2116.00
2018-08-09T06:14:59.788Z,2128.00
2018-08-09T06:15:59.756Z,2344.00
2018-08-09T06:16:59.732Z,2124.00
2018-08-09T06:17:59.690Z,2144.00
2018-08-09T06:18:59.672Z,2160.00
2018-08-09T06:19:59.627Z,2628.00
2018-08-09T06:20:59.595Z,2380.00
2018-08-09T06:21:59.566Z,2364.00
2018-08-09T06:22:59.533Z,2412.00
2018-08-09T06:23:59.502Z,2664.00
2018-08-09T06:24:59.468Z,2680.00
2018-08-09T06:25:59.439Z,2868.00
2018-08-09T06:26:59.409Z,3472.00
2018-08-09T06:27:59.376Z,3572.00
2018-08-09T06:28:59.346Z,3652.00
2018-08-09T06:29:59.309Z,3420.00
2018-08-09T06:30:59.276Z,3696.00
2018-08-09T06:31:59.249Z,3608.00
2018-08-09T06:32:59.211Z,3564.00
2018-08-09T06:33:59.185Z,3488.00
2018-08-09T06:34:59.151Z,3504.00
2018-08-09T06:35:59.121Z,3516.00
2018-08-09T06:36:59.090Z,3580.00
2018-08-09T06:37:59.052Z,3612.00
2018-08-09T06:38:59.024Z,3632.00
2018-08-09T06:39:58.992Z,3680.00
2018-08-09T06:40:58.964Z,3680.00
2018-08-09T06:41:58.925Z,3708.00
2018-08-09T06:42:58.896Z,3732.00
2018-08-09T06:43:58.864Z,3732.00
2018-08-09T06:44:58.828Z,3744.00
2018-08-09T06:45:58.805Z,3744.00
2018-08-09T06:46:58.773Z,3764.00
2018-08-09T06:47:58.740Z,3792.00
2018-08-09T06:48:58.710Z,3800.00
2018-08-09T06:49:58.673Z,3764.00
2018-08-09T06:50:58.644Z,3752.00
2018-08-09T06:51:58.615Z,3760.00
2018-08-09T06:52:58.579Z,3756.00
2018-08-09T06:53:58.552Z,3756.00
2018-08-09T06:54:58.523Z,3748.00
2018-08-09T06:55:58.487Z,3748.00
2018-08-09T06:56:58.459Z,3728.00
2018-08-09T06:57:58.429Z,3740.00
2018-08-09T06:58:58.396Z,3736.00
2018-08-09T06:59:58.363Z,3720.00
2018-08-09T07:00:58.336Z,3752.00
2018-08-09T07:01:58.298Z,3776.00
2018-08-09T07:02:58.270Z,3796.00
2018-08-09T07:03:58.241Z,3804.00
2018-08-09T07:04:58.238Z,3832.00
2018-08-09T07:05:58.179Z,3868.00
2018-08-09T07:06:58.190Z,3868.00
2018-08-09T07:07:58.113Z,3856.00
2018-08-09T07:08:58.088Z,3880.00
2018-08-09T07:09:58.048Z,3888.00
2018-08-09T07:10:58.022Z,3896.00
2018-08-09T07:11:57.998Z,3916.00
2018-08-09T07:12:57.965Z,3888.00
2018-08-09T07:13:57.931Z,3896.00
2018-08-09T07:14:57.897Z,3896.00
2018-08-09T07:15:57.864Z,3900.00
2018-08-09T07:16:57.832Z,3904.00
2018-08-09T07:17:57.807Z,3908.00
2018-08-09T07:18:57.776Z,3940.00
2018-08-09T07:19:57.746Z,3960.00
2018-08-09T07:20:57.719Z,3968.00
2018-08-09T07:21:57.678Z,3980.00
2018-08-09T07:22:57.650Z,3992.00
2018-08-09T07:23:57.621Z,4008.00
2018-08-09T07:24:57.589Z,4032.00
2018-08-09T07:25:57.562Z,4048.00
2018-08-09T07:26:57.529Z,4064.00
2018-08-09T07:27:57.496Z,4100.00
2018-08-09T07:28:57.469Z,4208.00
2018-08-09T07:29:57.438Z,4148.00
2018-08-09T07:30:57.408Z,4180.00
2018-08-09T07:31:57.375Z,4212.00
2018-08-09T07:32:57.344Z,4252.00
2018-08-09T07:33:57.313Z,4304.00
2018-08-09T07:34:57.281Z,4344.00
2018-08-09T07:35:57.251Z,4412.00
2018-08-09T07:36:57.241Z,4456.00
2018-08-09T07:37:57.195Z,4468.00
2018-08-09T07:38:57.163Z,4500.00
2018-08-09T07:39:57.130Z,4520.00
2018-08-09T07:40:57.103Z,4576.00
2018-08-09T07:41:57.065Z,4620.00
2018-08-09T07:42:57.038Z,4636.00
2018-08-09T07:43:57.008Z,4656.00
2018-08-09T07:44:57.020Z,4668.00
2018-08-09T07:45:56.944Z,4536.00
2018-08-09T07:46:56.916Z,4616.00
2018-08-09T07:47:56.898Z,4692.00
2018-08-09T07:48:56.855Z,4776.00
2018-08-09T07:49:56.830Z,4820.00
2018-08-09T07:50:56.807Z,4816.00
2018-08-09T07:51:56.768Z,4856.00
2018-08-09T07:52:56.741Z,4884.00
2018-08-09T07:53:56.706Z,4908.00
2018-08-09T07:54:56.675Z,4932.00
2018-08-09T07:55:56.645Z,4948.00
2018-08-09T07:56:56.623Z,4964.00
2018-08-09T07:57:56.596Z,4968.00
2018-08-09T07:58:56.561Z,4972.00
2018-08-09T07:59:56.525Z,5004.00
2018-08-09T08:00:56.529Z,4968.00
2018-08-09T08:01:56.471Z,4956.00
2018-08-09T08:02:56.438Z,4904.00
2018-08-09T08:03:56.407Z,4924.00
2018-08-09T08:04:56.379Z,4924.00
2018-08-09T08:05:56.346Z,4968.00
2018-08-09T08:06:56.317Z,5004.00
2018-08-09T08:07:56.286Z,4904.00
2018-08-09T08:08:56.255Z,5000.00
2018-08-09T08:09:56.233Z,4900.00
2018-08-09T08:10:56.200Z,3532.00
2018-08-09T08:11:56.169Z,4968.00
2018-08-09T08:12:56.142Z,5024.00
2018-08-09T08:13:56.107Z,4104.00
2018-08-09T08:14:56.096Z,5012.00
2018-08-09T08:15:56.071Z,5052.00
2018-08-09T08:16:56.024Z,5092.00
2018-08-09T08:17:55.987Z,5208.00
2018-08-09T08:18:55.961Z,4904.00
2018-08-09T08:19:55.932Z,5328.00
2018-08-09T08:20:55.901Z,4424.00
2018-08-09T08:21:55.875Z,4512.00
2018-08-09T08:22:55.864Z,5368.00
2018-08-09T08:23:55.814Z,3952.00
2018-08-09T08:24:55.786Z,3816.00
2018-08-09T08:25:55.751Z,3752.00
2018-08-09T08:26:55.724Z,4576.00
2018-08-09T08:27:55.694Z,5100.00
2018-08-09T08:28:55.665Z,5112.00
2018-08-09T08:29:55.645Z,5552.00
2018-08-09T08:30:55.612Z,5372.00
2018-08-09T08:31:55.576Z,5184.00
2018-08-09T08:32:55.546Z,5380.00
2018-08-09T08:33:55.523Z,5272.00
2018-08-09T08:34:55.492Z,5780.00
2018-08-09T08:35:55.461Z,5124.00
2018-08-09T08:36:55.436Z,5528.00
2018-08-09T08:37:55.401Z,5756.00
2018-08-09T08:38:55.373Z,4988.00
2018-08-09T08:39:55.344Z,4812.00
2018-08-09T08:40:55.315Z,4724.00
2018-08-09T08:41:55.362Z,4584.00
2018-08-09T08:42:55.258Z,4680.00
2018-08-09T08:43:55.229Z,4816.00
2018-08-09T08:44:55.202Z,4788.00
2018-08-09T08:45:55.166Z,4700.00
2018-08-09T08:46:55.140Z,4568.00
2018-08-09T08:47:55.118Z,4392.00
2018-08-09T08:48:55.084Z,4184.00
2018-08-09T08:49:55.051Z,3992.00
2018-08-09T08:50:55.023Z,3852.00
2018-08-09T08:51:54.993Z,3712.00
2018-08-09T08:52:54.980Z,3660.00
2018-08-09T08:53:54.939Z,3712.00
2018-08-09T08:54:54.908Z,3880.00
2018-08-09T08:55:54.877Z,4112.00
2018-08-09T08:56:54.856Z,4144.00
2018-08-09T08:57:54.817Z,4040.00
2018-08-09T08:58:54.795Z,3864.00
2018-08-09T08:59:54.776Z,3732.00
2018-08-09T09:00:54.761Z,3672.00
2018-08-09T09:01:54.705Z,3772.00
2018-08-09T09:02:54.674Z,3880.00
2018-08-09T09:03:54.642Z,3960.00
2018-08-09T09:04:54.633Z,4356.00
2018-08-09T09:05:54.591Z,4752.00
2018-08-09T09:06:54.609Z,5600.00
2018-08-09T09:07:54.529Z,6492.00
2018-08-09T09:08:54.501Z,6592.00
2018-08-09T09:09:54.466Z,6420.00
2018-08-09T09:10:54.443Z,6484.00
2018-08-09T09:11:54.409Z,5432.00
2018-08-09T09:12:54.379Z,6568.00
2018-08-09T09:13:54.358Z,6404.00
2018-08-09T09:14:54.325Z,6072.00
2018-08-09T09:15:54.296Z,5704.00
2018-08-09T09:16:54.268Z,5476.00
2018-08-09T09:17:54.234Z,5220.00
2018-08-09T09:18:54.207Z,5120.00
2018-08-09T09:19:54.178Z,5040.00
2018-08-09T09:20:54.156Z,5000.00
2018-08-09T09:21:54.121Z,4952.00
2018-08-09T09:22:54.093Z,4904.00
2018-08-09T09:23:54.062Z,4856.00
2018-08-09T09:24:54.032Z,4844.00
2018-08-09T09:25:54.008Z,4796.00
2018-08-09T09:26:53.998Z,4784.00
2018-08-09T09:27:53.948Z,4784.00
2018-08-09T09:28:53.923Z,4784.00
2018-08-09T09:29:53.886Z,4768.00
2018-08-09T09:30:53.860Z,4756.00
2018-08-09T09:31:53.831Z,4748.00
2018-08-09T09:32:53.800Z,4752.00
2018-08-09T09:33:53.778Z,4752.00
2018-08-09T09:34:53.748Z,4720.00
2018-08-09T09:35:53.716Z,4704.00
2018-08-09T09:36:53.685Z,4696.00
2018-08-09T09:37:53.664Z,4708.00
2018-08-09T09:38:53.636Z,4676.00
2018-08-09T09:39:53.608Z,4668.00
2018-08-09T09:40:53.578Z,4680.00
2018-08-09T09:41:53.546Z,4700.00
2018-08-09T09:42:53.514Z,4760.00
2018-08-09T09:43:53.486Z,4796.00
2018-08-09T09:44:53.454Z,4796.00
2018-08-09T09:45:53.434Z,4776.00
2018-08-09T09:46:53.411Z,4840.00
2018-08-09T09:47:53.373Z,4884.00
2018-08-09T09:48:53.347Z,4972.00
2018-08-09T09:49:53.312Z,4980.00
2018-08-09T09:50:53.286Z,5108.00
2018-08-09T09:51:53.258Z,5116.00
2018-08-09T09:52:53.236Z,5072.00
2018-08-09T09:53:53.198Z,5260.00
2018-08-09T09:54:53.220Z,5236.00
2018-08-09T09:55:53.150Z,4720.00
2018-08-09T09:56:53.115Z,3556.00
2018-08-09T09:57:53.090Z,3528.00
2018-08-09T09:58:53.060Z,3484.00
2018-08-09T09:59:53.033Z,3696.00
2018-08-09T10:00:53.010Z,3996.00
2018-08-09T10:01:52.983Z,4412.00
2018-08-09T10:02:52.945Z,6032.00
2018-08-09T10:03:52.921Z,6048.00
2018-08-09T10:04:52.888Z,6584.00
2018-08-09T10:05:52.865Z,6808.00
2018-08-09T10:06:52.836Z,7100.00
2018-08-09T10:07:52.806Z,6796.00
2018-08-09T10:21:12.712Z,5272.00
2018-08-09T10:22:12.632Z,5200.00
2018-08-09T10:23:12.603Z,5088.00
2018-08-09T10:24:12.571Z,4848.00
2018-08-09T10:25:12.548Z,4736.00
2018-08-09T10:26:12.514Z,4468.00
2018-08-09T10:27:12.482Z,4364.00
2018-08-09T10:28:12.451Z,4404.00
2018-08-09T10:29:12.418Z,4832.00
2018-08-09T10:30:12.386Z,4800.00
2018-08-09T10:31:12.357Z,4568.00
2018-08-09T10:32:12.331Z,4404.00
2018-08-09T10:33:12.307Z,4388.00
2018-08-09T10:34:12.278Z,4252.00
2018-08-09T10:35:12.248Z,3964.00
2018-08-09T10:36:12.216Z,3664.00
2018-08-09T10:37:12.192Z,3568.00
2018-08-09T10:38:12.163Z,3620.00
2018-08-09T10:39:12.138Z,3588.00
2018-08-09T10:40:12.110Z,3656.00
2018-08-09T10:41:12.076Z,3776.00
2018-08-09T10:42:12.045Z,3772.00
2018-08-09T10:43:12.018Z,3820.00
2018-08-09T10:44:11.992Z,3896.00
2018-08-09T10:45:11.969Z,3888.00
2018-08-09T10:46:11.948Z,3820.00
2018-08-09T10:47:11.914Z,3708.00
2018-08-09T10:48:11.882Z,3644.00
2018-08-09T10:49:11.851Z,3744.00
2018-08-09T10:50:11.824Z,4016.00
2018-08-09T10:51:11.801Z,4252.00
2018-08-09T10:52:11.787Z,4296.00
2018-08-09T10:53:11.740Z,4280.00
2018-08-09T10:54:11.712Z,4300.00
2018-08-09T10:55:11.686Z,4704.00
2018-08-09T10:56:11.657Z,5232.00
2018-08-09T10:57:11.636Z,5628.00
2018-08-09T10:58:11.607Z,7280.00
2018-08-09T10:59:11.584Z,6216.00
2018-08-09T11:00:11.553Z,5972.00
2018-08-09T11:01:11.522Z,6084.00
2018-08-09T11:02:11.491Z,6216.00
2018-08-09T11:03:11.466Z,6544.00
2018-08-09T11:04:11.463Z,6680.00
2018-08-09T11:05:11.415Z,5976.00
2018-08-09T11:06:11.387Z,5700.00
2018-08-09T11:07:11.381Z,5448.00
2018-08-09T11:08:11.333Z,5444.00
2018-08-09T11:09:11.306Z,5356.00
2018-08-09T11:10:11.280Z,5128.00
2018-08-09T11:11:11.255Z,5196.00
2018-08-09T11:12:11.226Z,4912.00
2018-08-09T11:13:11.194Z,4804.00
2018-08-09T11:14:11.165Z,4692.00
2018-08-09T11:15:11.138Z,4536.00
2018-08-09T11:16:11.112Z,4324.00
2018-08-09T11:17:11.089Z,4108.00
2018-08-09T11:18:11.065Z,3900.00
2018-08-09T11:19:11.034Z,3692.00
2018-08-09T11:20:11.008Z,3532.00
2018-08-09T11:21:10.978Z,3408.00
2018-08-09T11:22:10.947Z,3324.00
2018-08-09T11:23:10.926Z,3276.00
2018-08-09T11:24:10.900Z,3232.00
2018-08-09T11:25:10.868Z,3220.00
2018-08-09T11:26:10.841Z,3236.00
2018-08-09T11:27:10.811Z,3252.00
2018-08-09T11:28:10.788Z,3196.00
2018-08-09T11:29:10.761Z,3036.00
2018-08-09T11:30:10.739Z,2824.00
2018-08-09T11:31:10.713Z,2716.00
2018-08-09T11:32:10.683Z,2616.00
2018-08-09T11:33:10.651Z,2500.00
2018-08-09T11:34:10.623Z,2396.00
2018-08-09T11:35:10.598Z,2320.00
2018-08-09T11:36:10.569Z,2280.00
2018-08-09T11:37:10.544Z,2236.00
2018-08-09T11:38:10.518Z,2152.00
2018-08-09T11:39:10.494Z,2080.00
2018-08-09T11:40:10.460Z,1960.00
2018-08-09T11:41:10.436Z,1876.00
2018-08-09T11:42:10.408Z,1836.00
2018-08-09T11:43:10.391Z,1836.00
2018-08-09T11:44:10.359Z,1804.00
2018-08-09T11:45:10.332Z,1776.00
2018-08-09T11:46:10.293Z,1752.00
2018-08-09T11:47:10.268Z,1712.00
2018-08-09T11:48:10.242Z,1668.00
2018-08-09T11:49:10.219Z,1624.00
2018-08-09T11:50:10.197Z,1564.00
2018-08-09T11:51:10.161Z,1504.00
2018-08-09T11:52:10.138Z,1392.00
2018-08-09T11:53:10.103Z,1316.00
2018-08-09T11:54:10.111Z,1252.00
2018-08-09T11:55:10.052Z,1280.00
2018-08-09T11:56:10.033Z,1316.00
2018-08-09T11:57:10.047Z,1416.00
2018-08-09T11:58:09.962Z,1500.00
2018-08-09T11:59:09.934Z,1668.00
2018-08-09T12:00:09.913Z,2004.00
2018-08-09T12:01:09.883Z,2240.00
2018-08-09T12:02:09.857Z,2232.00
2018-08-09T12:03:09.837Z,2192.00
2018-08-09T12:04:09.800Z,1944.00
2018-08-09T12:05:09.771Z,1464.00
2018-08-09T12:06:09.745Z,1336.00
2018-08-09T12:07:09.767Z,1428.00
2018-08-09T12:08:09.705Z,1580.00
2018-08-09T12:09:09.665Z,1848.00
2018-08-09T12:10:09.640Z,2132.00
2018-08-09T12:11:09.606Z,2404.00
2018-08-09T12:12:09.582Z,2668.00
2018-08-09T12:13:09.562Z,2832.00
2018-08-09T12:14:09.524Z,2936.00
2018-08-09T12:15:09.523Z,2972.00
2018-08-09T12:16:09.467Z,2980.00
2018-08-09T12:17:09.437Z,2984.00
2018-08-09T12:18:09.409Z,3036.00
2018-08-09T12:19:09.380Z,3100.00
2018-08-09T12:20:09.355Z,3204.00
2018-08-09T12:21:09.328Z,3244.00
2018-08-09T12:22:09.301Z,3284.00
2018-08-09T12:23:09.274Z,3292.00
2018-08-09T12:24:09.245Z,3236.00
2018-08-09T12:25:09.218Z,3148.00
2018-08-09T12:26:09.185Z,2972.00
2018-08-09T12:27:09.162Z,2740.00
2018-08-09T12:28:09.137Z,2480.00
2018-08-09T12:29:09.105Z,2292.00
2018-08-09T12:30:09.072Z,2120.00
2018-08-09T12:31:09.044Z,1968.00
2018-08-09T12:32:09.023Z,1848.00
2018-08-09T12:33:09.021Z,1768.00
2018-08-09T12:34:08.967Z,1724.00
2018-08-09T12:35:08.939Z,1700.00
2018-08-09T12:36:08.909Z,1692.00
2018-08-09T12:37:08.881Z,1708.00
2018-08-09T12:38:08.849Z,1728.00
2018-08-09T12:39:08.821Z,1788.00
2018-08-09T12:40:08.795Z,1836.00
2018-08-09T12:41:08.773Z,1856.00
2018-08-09T12:42:08.742Z,1884.00
2018-08-09T12:43:08.709Z,1880.00
2018-08-09T12:44:08.684Z,1880.00
2018-08-09T12:45:08.685Z,1912.00
2018-08-09T12:46:08.629Z,1952.00
2018-08-09T12:47:08.600Z,2028.00
2018-08-09T12:48:08.571Z,2100.00
2018-08-09T12:49:08.543Z,2172.00
2018-08-09T12:50:08.509Z,2268.00
2018-08-09T12:51:08.481Z,2304.00
2018-08-09T12:52:08.455Z,2408.00
2018-08-09T12:53:08.429Z,2476.00
2018-08-09T12:54:08.401Z,2568.00